createdAt,value
2023-02-02T00:02:04.355Z,3.47
2023-02-02T00:07:08.944Z,3.36
2023-02-02T00:12:13.611Z,3.07
2023-02-02T00:17:19.631Z,3.00
2023-02-02T00:22:24.107Z,2.50
2023-02-02T00:27:28.596Z,2.88
2023-02-02T00:32:34.765Z,2.55
2023-02-02T00:37:39.207Z,2.51
2023-02-02T00:42:49.145Z,1.72
2023-02-02T00:47:57.551Z,2.16
2023-02-02T00:53:02.088Z,2.10
2023-02-02T00:58:06.640Z,1.96
2023-02-02T01:03:13.468Z,2.40
2023-02-02T01:08:18.064Z,1.95
2023-02-02T01:13:22.660Z,1.51
2023-02-02T01:18:29.420Z,1.29
2023-02-02T01:23:35.098Z,1.24
2023-02-02T01:28:40.520Z,1.90
2023-02-02T01:33:48.078Z,1.63
2023-02-02T01:38:53.071Z,1.79
2023-02-02T01:44:00.310Z,1.75
2023-02-02T01:49:09.541Z,1.68
2023-02-02T01:54:18.478Z,1.80
2023-02-02T01:59:24.019Z,1.78
2023-02-02T02:04:30.954Z,1.89
2023-02-02T02:09:36.462Z,1.78
2023-02-02T02:14:58.547Z,1.75
2023-02-02T02:20:56.528Z,1.69
2023-02-02T02:26:37.735Z,1.92
2023-02-02T02:32:15.635Z,1.70
2023-02-02T02:37:30.717Z,1.92
2023-02-02T02:42:39.226Z,1.54
2023-02-02T02:47:46.266Z,1.63
2023-02-02T02:52:57.697Z,1.57
2023-02-02T02:58:11.210Z,1.35
2023-02-02T03:03:25.361Z,1.45
2023-02-02T03:08:35.228Z,1.37
2023-02-02T03:13:41.092Z,1.30
2023-02-02T03:18:47.366Z,1.62
2023-02-02T03:23:52.159Z,1.08
2023-02-02T03:28:58.496Z,1.32
2023-02-02T03:34:04.523Z,1.24
2023-02-02T03:39:09.140Z,0.91
2023-02-02T03:44:13.704Z,0.94
2023-02-02T03:49:19.805Z,1.05
2023-02-02T03:54:24.464Z,1.05
2023-02-02T03:59:29.005Z,0.80
2023-02-02T04:04:35.027Z,1.04
2023-02-02T04:09:39.686Z,0.95
2023-02-02T04:14:44.333Z,0.82
2023-02-02T04:19:53.261Z,0.83
2023-02-02T04:24:57.867Z,0.98
2023-02-02T04:30:03.059Z,0.99
2023-02-02T04:35:10.393Z,1.05
2023-02-02T04:40:16.124Z,0.75
2023-02-02T04:45:21.256Z,1.11
2023-02-02T04:50:28.301Z,0.98
2023-02-02T04:55:38.563Z,1.11
2023-02-02T05:00:43.097Z,1.02
2023-02-02T05:05:49.087Z,1.23
2023-02-02T05:10:53.698Z,1.35
2023-02-02T05:15:58.144Z,1.41
2023-02-02T05:21:05.169Z,1.36
2023-02-02T05:26:13.031Z,1.45
2023-02-02T05:31:17.992Z,1.42
2023-02-02T05:36:24.310Z,1.31
2023-02-02T05:41:28.719Z,1.52
2023-02-02T05:46:34.302Z,1.39
2023-02-02T05:51:41.536Z,1.55
2023-02-02T05:56:46.580Z,1.47
2023-02-02T06:01:51.275Z,1.31
2023-02-02T06:06:58.520Z,1.44
2023-02-02T06:12:02.997Z,1.83
2023-02-02T06:17:10.431Z,1.54
2023-02-02T06:22:16.938Z,1.67
2023-02-02T06:27:21.531Z,1.37
2023-02-02T06:32:26.437Z,1.56
2023-02-02T06:37:34.230Z,1.71
2023-02-02T06:42:41.000Z,1.72
2023-02-02T06:47:46.479Z,1.80
2023-02-02T06:52:54.097Z,1.60
2023-02-02T06:58:01.817Z,1.81
2023-02-02T07:03:10.029Z,1.88
2023-02-02T07:08:19.209Z,1.88
2023-02-02T07:13:24.741Z,2.05
2023-02-02T07:18:29.287Z,2.23
2023-02-02T07:23:35.687Z,2.01
2023-02-02T07:28:40.132Z,2.20
2023-02-02T07:33:45.447Z,2.22
2023-02-02T07:38:53.906Z,2.30
2023-02-02T07:43:58.513Z,2.24
2023-02-02T07:49:02.918Z,2.62
2023-02-02T07:54:09.789Z,2.58
2023-02-02T07:59:14.411Z,2.00
2023-02-02T08:04:18.973Z,2.37
2023-02-02T08:09:24.990Z,2.57
2023-02-02T08:14:35.574Z,2.79
2023-02-02T08:19:40.541Z,3.26
2023-02-02T08:24:46.593Z,3.51
2023-02-02T08:29:51.223Z,3.21
2023-02-02T08:34:55.888Z,3.73
2023-02-02T08:40:01.959Z,3.68
2023-02-02T08:46:01.997Z,3.30
2023-02-02T08:50:32.200Z,3.48
2023-02-02T08:55:38.180Z,3.23
2023-02-02T09:00:42.980Z,3.38
2023-02-02T09:05:47.706Z,3.64
2023-02-02T09:10:54.414Z,3.65
2023-02-02T09:16:01.294Z,3.65
2023-02-02T09:21:08.168Z,3.68
2023-02-02T09:26:16.823Z,3.62
2023-02-02T09:31:22.197Z,3.60
2023-02-02T09:36:28.141Z,3.33
2023-02-02T09:42:01.012Z,2.76
2023-02-02T09:47:15.949Z,2.34
2023-02-02T09:52:27.142Z,2.15
2023-02-02T09:57:39.324Z,2.48
2023-02-02T10:02:47.525Z,2.05
2023-02-02T10:07:58.267Z,2.84
2023-02-02T10:13:12.060Z,2.43
2023-02-02T10:18:22.444Z,2.62
2023-02-02T10:23:30.640Z,2.45
2023-02-02T10:28:44.628Z,2.41
2023-02-02T10:34:03.745Z,2.26
2023-02-02T10:39:17.843Z,2.47
2023-02-02T10:44:33.452Z,2.59
2023-02-02T10:49:40.732Z,2.42
2023-02-02T10:54:59.761Z,2.01
2023-02-02T11:00:17.294Z,1.98
2023-02-02T11:05:42.494Z,1.68
2023-02-02T11:10:49.042Z,1.48
2023-02-02T11:16:22.181Z,1.25
2023-02-02T11:21:29.260Z,0.93
2023-02-02T11:26:46.999Z,0.89
2023-02-02T11:31:53.241Z,1.07
2023-02-02T11:37:03.737Z,0.85
2023-02-02T11:42:14.956Z,0.99
2023-02-02T11:47:28.652Z,0.85
2023-02-02T11:52:35.109Z,0.95
2023-02-02T11:57:39.873Z,1.13
2023-02-02T12:02:50.326Z,1.35
2023-02-02T12:07:55.167Z,1.35
2023-02-02T12:13:07.039Z,1.73
2023-02-02T12:18:33.354Z,1.41
2023-02-02T12:23:54.925Z,1.39
2023-02-02T12:29:27.506Z,1.32
2023-02-02T12:34:45.844Z,1.63
2023-02-02T12:40:04.389Z,1.19
2023-02-02T12:45:27.148Z,1.25
2023-02-02T12:50:40.797Z,1.19
2023-02-02T12:55:50.359Z,1.09
2023-02-02T13:01:18.247Z,1.40
2023-02-02T13:06:42.829Z,1.56
2023-02-02T13:11:52.447Z,1.49
2023-02-02T13:17:02.475Z,1.42
2023-02-02T13:22:14.684Z,1.65
2023-02-02T13:27:22.967Z,1.51
2023-02-02T13:32:32.428Z,1.92
2023-02-02T13:37:49.860Z,1.90
2023-02-02T13:43:00.115Z,1.58
2023-02-02T13:48:16.137Z,1.63
2023-02-02T13:53:42.490Z,1.57
2023-02-02T13:59:03.521Z,1.71
2023-02-02T14:04:22.673Z,1.82
2023-02-02T14:09:31.396Z,1.75
2023-02-02T14:14:39.163Z,1.78
2023-02-02T14:19:59.516Z,1.68
2023-02-02T14:25:29.002Z,1.43
2023-02-02T14:30:38.821Z,1.29
2023-02-02T14:36:07.002Z,1.43
2023-02-02T14:41:49.550Z,1.37
2023-02-02T14:47:03.263Z,1.43
2023-02-02T14:52:24.526Z,1.58
2023-02-02T14:57:32.692Z,1.41
2023-02-02T15:02:42.121Z,1.35
2023-02-02T15:07:54.788Z,1.70
2023-02-02T15:13:08.699Z,1.54
2023-02-02T15:18:17.147Z,1.69
2023-02-02T15:23:30.540Z,1.71
2023-02-02T15:28:43.455Z,1.51
2023-02-02T15:33:51.807Z,1.39
2023-02-02T15:38:59.377Z,1.59
2023-02-02T15:44:20.273Z,1.61
2023-02-02T15:49:34.694Z,1.40
2023-02-02T15:54:40.165Z,1.43
2023-02-02T15:59:46.276Z,1.56
2023-02-02T16:04:52.617Z,1.58
2023-02-02T16:09:57.775Z,1.77
2023-02-02T16:15:03.961Z,1.87
2023-02-02T16:20:17.832Z,1.77
2023-02-02T16:25:25.568Z,1.55
2023-02-02T16:30:35.732Z,1.65
2023-02-02T16:35:42.107Z,1.73
2023-02-02T16:40:46.646Z,1.77
2023-02-02T16:45:57.681Z,1.87
2023-02-02T16:51:14.230Z,1.66
2023-02-02T16:56:27.725Z,1.88
2023-02-02T17:01:40.783Z,1.75
2023-02-02T17:06:52.785Z,1.61
2023-02-02T17:12:03.746Z,1.97
2023-02-02T17:17:11.477Z,1.71
2023-02-02T17:22:18.281Z,2.19
2023-02-02T17:27:27.666Z,2.15
2023-02-02T17:32:35.169Z,2.05
2023-02-02T17:37:39.641Z,1.80
2023-02-02T17:42:45.665Z,2.16
2023-02-02T17:47:52.201Z,1.96
2023-02-02T17:52:56.692Z,1.49
2023-02-02T17:58:01.350Z,1.56
2023-02-02T18:03:12.510Z,1.09
2023-02-02T18:08:17.177Z,1.40
2023-02-02T18:13:23.592Z,1.19
2023-02-02T18:18:30.080Z,0.69
2023-02-02T18:23:34.703Z,1.16
2023-02-02T18:28:40.230Z,1.31
2023-02-02T18:33:46.221Z,1.12
2023-02-02T18:38:53.812Z,1.19
2023-02-02T18:43:58.453Z,0.97
2023-02-02T18:49:06.734Z,1.04
2023-02-02T18:54:12.669Z,1.03
2023-02-02T18:59:17.680Z,1.10
2023-02-02T19:04:23.796Z,1.09
2023-02-02T19:09:28.414Z,1.37
2023-02-02T19:14:36.909Z,1.40
2023-02-02T19:19:43.573Z,1.68
2023-02-02T19:24:48.572Z,1.90
2023-02-02T19:29:56.716Z,1.50
2023-02-02T19:35:03.000Z,1.70
2023-02-02T19:40:19.349Z,1.53
2023-02-02T19:45:27.200Z,1.79
2023-02-02T19:50:41.039Z,1.70
2023-02-02T19:55:45.985Z,1.76
2023-02-02T20:00:52.223Z,1.70
2023-02-02T20:06:00.788Z,1.79
2023-02-02T20:11:24.795Z,1.80
2023-02-02T20:16:39.283Z,1.61
2023-02-02T20:21:48.472Z,1.92
2023-02-02T20:26:54.591Z,1.86
2023-02-02T20:32:00.428Z,1.62
2023-02-02T20:37:17.624Z,1.64
2023-02-02T20:42:22.914Z,1.58
2023-02-02T20:47:27.625Z,1.64
2023-02-02T20:52:34.398Z,1.59
2023-02-02T20:57:40.421Z,1.52
2023-02-02T21:02:44.963Z,1.90
2023-02-02T21:07:54.949Z,1.61
2023-02-02T21:12:59.616Z,1.26
2023-02-02T21:18:04.583Z,1.23
2023-02-02T21:23:11.055Z,1.34
2023-02-02T21:28:15.966Z,1.35
2023-02-02T21:33:20.716Z,1.17
2023-02-02T21:38:26.743Z,0.88
2023-02-02T21:43:31.234Z,0.95
2023-02-02T21:48:39.781Z,1.39
2023-02-02T21:53:46.575Z,1.31
2023-02-02T21:58:51.327Z,1.05
2023-02-02T22:03:56.370Z,1.16
2023-02-02T22:09:14.298Z,1.22
2023-02-02T22:14:24.700Z,0.86
2023-02-02T22:19:35.117Z,1.18
2023-02-02T22:24:41.543Z,1.09
2023-02-02T22:29:46.742Z,1.03
2023-02-02T22:34:51.273Z,1.48
2023-02-02T22:39:58.589Z,0.86
2023-02-02T22:45:05.782Z,1.32
2023-02-02T22:50:11.042Z,1.37
2023-02-02T22:55:18.879Z,1.42
2023-02-02T23:00:26.408Z,1.48
2023-02-02T23:05:31.098Z,1.15
2023-02-02T23:10:37.160Z,1.29
2023-02-02T23:15:41.834Z,1.26
2023-02-02T23:20:48.832Z,1.91
2023-02-02T23:25:54.976Z,1.31
2023-02-02T23:30:59.910Z,1.59
2023-02-02T23:36:06.738Z,1.83
2023-02-02T23:41:12.782Z,1.62
2023-02-02T23:46:18.071Z,1.29
2023-02-02T23:51:22.824Z,1.65
2023-02-02T23:56:29.374Z,1.42
